createdAt,value
2022-10-13T00:02:26.534Z,2.58
2022-10-13T00:04:58.422Z,2.25
2022-10-13T00:07:27.673Z,2.60
2022-10-13T00:09:55.038Z,1.63
2022-10-13T00:12:22.465Z,1.33
2022-10-13T00:14:52.269Z,2.38
2022-10-13T00:17:21.541Z,3.28
2022-10-13T00:19:49.224Z,2.58
2022-10-13T00:22:16.970Z,2.67
2022-10-13T00:24:44.693Z,3.30
2022-10-13T00:27:15.708Z,3.45
2022-10-13T00:30:00.068Z,2.83
2022-10-13T00:32:29.715Z,3.58
2022-10-13T00:35:02.040Z,2.20
2022-10-13T00:37:32.016Z,2.45
2022-10-13T00:40:03.038Z,3.03
2022-10-13T00:42:31.682Z,1.90
2022-10-13T00:45:02.497Z,2.15
2022-10-13T00:47:33.488Z,2.13
2022-10-13T00:50:08.902Z,2.90
2022-10-13T00:52:39.471Z,3.55
2022-10-13T00:55:09.569Z,2.00
2022-10-13T00:57:41.016Z,1.95
2022-10-13T01:00:08.872Z,1.65
2022-10-13T01:02:38.898Z,2.30
2022-10-13T01:05:07.526Z,3.45
2022-10-13T01:07:38.585Z,3.25
2022-10-13T01:10:06.325Z,2.33
2022-10-13T01:12:44.323Z,2.67
2022-10-13T01:15:16.759Z,3.53
2022-10-13T01:17:47.520Z,2.90
2022-10-13T01:20:34.741Z,4.22
2022-10-13T01:23:18.632Z,2.67
2022-10-13T01:25:53.203Z,2.80
2022-10-13T01:28:45.475Z,3.17
2022-10-13T01:31:21.151Z,2.10
2022-10-13T01:34:00.291Z,3.40
2022-10-13T01:36:54.138Z,1.55
2022-10-13T01:39:34.889Z,3.70
2022-10-13T01:42:14.541Z,2.75
2022-10-13T01:44:51.352Z,3.88
2022-10-13T01:47:19.480Z,2.53
2022-10-13T01:49:51.529Z,2.30
2022-10-13T01:52:31.715Z,3.40
2022-10-13T01:55:04.233Z,2.67
2022-10-13T01:57:41.356Z,2.38
2022-10-13T02:03:08.092Z,2.30
2022-10-13T02:05:51.379Z,3.55
2022-10-13T02:08:24.898Z,2.20
2022-10-13T02:11:03.288Z,3.47
2022-10-13T02:13:36.668Z,2.85
2022-10-13T02:16:04.082Z,2.03
2022-10-13T02:18:35.618Z,3.92
2022-10-13T02:21:07.841Z,2.45
2022-10-13T02:23:35.449Z,2.47
2022-10-13T02:26:02.937Z,2.13
2022-10-13T02:28:30.780Z,2.63
2022-10-13T02:30:58.299Z,2.85
2022-10-13T02:33:25.780Z,1.83
2022-10-13T02:35:55.782Z,2.50
2022-10-13T02:38:25.567Z,2.22
2022-10-13T02:40:56.901Z,2.03
2022-10-13T02:43:24.309Z,2.75
2022-10-13T02:45:51.741Z,3.75
2022-10-13T02:48:20.249Z,2.45
2022-10-13T02:50:50.405Z,3.28
2022-10-13T02:53:19.048Z,2.35
2022-10-13T02:55:49.645Z,2.83
2022-10-13T02:58:17.088Z,3.78
2022-10-13T03:00:48.812Z,1.27
2022-10-13T03:03:18.493Z,2.90
2022-10-13T03:05:47.406Z,1.60
2022-10-13T03:08:17.206Z,3.33
2022-10-13T03:10:55.305Z,2.88
2022-10-13T03:13:24.952Z,3.60
2022-10-13T03:15:52.315Z,3.00
2022-10-13T03:18:19.798Z,3.15
2022-10-13T03:20:56.001Z,2.28
2022-10-13T03:23:23.352Z,2.25
2022-10-13T03:25:54.239Z,2.75
2022-10-13T03:28:28.880Z,3.35
2022-10-13T03:31:03.064Z,2.65
2022-10-13T03:33:30.562Z,3.42
2022-10-13T03:36:05.330Z,2.58
2022-10-13T03:38:34.183Z,3.15
2022-10-13T03:41:08.634Z,1.58
2022-10-13T03:43:36.383Z,2.25
2022-10-13T03:46:04.665Z,3.28
2022-10-13T03:48:32.634Z,2.90
2022-10-13T03:51:00.187Z,3.42
2022-10-13T03:53:37.374Z,2.63
2022-10-13T03:56:09.703Z,2.95
2022-10-13T03:58:37.103Z,2.53
2022-10-13T04:01:12.818Z,3.78
2022-10-13T04:03:47.201Z,2.35
2022-10-13T04:06:14.618Z,3.67
2022-10-13T04:08:42.232Z,2.95
2022-10-13T04:11:11.750Z,2.28
2022-10-13T04:13:39.377Z,2.58
2022-10-13T04:16:10.376Z,2.58
2022-10-13T04:18:45.138Z,3.55
2022-10-13T04:21:16.275Z,1.98
2022-10-13T04:23:43.726Z,2.45
2022-10-13T04:26:20.653Z,3.00
2022-10-13T04:28:53.097Z,2.58
2022-10-13T04:31:25.374Z,3.03
2022-10-13T04:33:55.658Z,4.13
2022-10-13T04:36:32.476Z,3.50
2022-10-13T04:39:02.427Z,2.83
2022-10-13T04:41:32.270Z,3.85
2022-10-13T04:44:02.380Z,2.28
2022-10-13T04:46:30.150Z,2.72
2022-10-13T04:49:02.672Z,2.38
2022-10-13T04:51:30.196Z,4.15
2022-10-13T04:54:05.774Z,2.50
2022-10-13T04:56:38.136Z,2.45
2022-10-13T04:59:09.909Z,2.03
2022-10-13T05:01:52.407Z,2.53
2022-10-13T05:04:19.842Z,3.70
2022-10-13T05:07:22.252Z,2.60
2022-10-13T05:09:42.309Z,4.00
2022-10-13T05:12:12.489Z,2.70
2022-10-13T05:14:39.945Z,2.38
2022-10-13T05:17:08.488Z,2.20
2022-10-13T05:19:35.932Z,2.97
2022-10-13T05:22:08.790Z,3.25
2022-10-13T05:24:42.089Z,1.35
2022-10-13T05:27:15.144Z,3.28
2022-10-13T05:29:47.101Z,3.38
2022-10-13T05:32:19.477Z,2.85
2022-10-13T05:34:48.808Z,2.25
2022-10-13T05:37:25.269Z,2.58
2022-10-13T05:39:55.291Z,3.30
2022-10-13T05:42:23.838Z,2.38
2022-10-13T05:44:58.554Z,2.95
2022-10-13T05:47:28.369Z,4.22
2022-10-13T05:49:59.637Z,2.13
2022-10-13T05:52:33.202Z,2.97
2022-10-13T05:55:06.627Z,2.03
2022-10-13T05:57:45.988Z,1.88
2022-10-13T06:00:15.267Z,2.83
2022-10-13T06:03:11.617Z,2.72
2022-10-13T06:05:41.297Z,3.13
2022-10-13T06:08:11.968Z,2.58
2022-10-13T06:10:40.094Z,2.50
2022-10-13T06:13:20.842Z,2.20
2022-10-13T06:15:52.765Z,2.20
2022-10-13T06:18:20.181Z,2.22
2022-10-13T06:20:47.589Z,2.97
2022-10-13T06:23:15.088Z,2.08
2022-10-13T06:25:49.577Z,3.85
2022-10-13T06:28:19.249Z,3.30
2022-10-13T06:30:49.602Z,2.55
2022-10-13T06:33:19.367Z,2.50
2022-10-13T06:35:46.786Z,3.58
2022-10-13T06:38:27.386Z,3.38
2022-10-13T06:40:54.861Z,2.75
2022-10-13T06:43:26.049Z,3.08
2022-10-13T06:46:01.636Z,2.10
2022-10-13T06:48:33.057Z,3.13
2022-10-13T06:51:07.965Z,3.30
2022-10-13T06:53:36.614Z,3.35
2022-10-13T06:56:08.074Z,3.30
2022-10-13T06:58:38.490Z,3.33
2022-10-13T07:01:06.525Z,4.00
2022-10-13T07:03:35.961Z,4.10
2022-10-13T07:06:04.009Z,4.22
2022-10-13T07:08:31.679Z,3.35
2022-10-13T07:10:59.209Z,5.13
2022-10-13T07:13:30.400Z,3.05
2022-10-13T07:16:03.013Z,4.82
2022-10-13T07:18:30.480Z,3.88
2022-10-13T07:20:59.974Z,4.03
2022-10-13T07:23:29.032Z,5.00
2022-10-13T07:28:35.739Z,3.40
2022-10-13T07:31:07.940Z,4.80
2022-10-13T07:33:35.471Z,4.53
2022-10-13T07:36:02.882Z,4.22
2022-10-13T07:38:32.573Z,3.97
2022-10-13T07:41:06.615Z,3.53
2022-10-13T07:43:34.273Z,4.53
2022-10-13T07:46:04.879Z,3.42
2022-10-13T07:48:32.581Z,4.72
2022-10-13T07:51:03.426Z,4.20
2022-10-13T07:53:33.323Z,4.20
2022-10-13T07:56:03.765Z,5.75
2022-10-13T07:58:32.235Z,7.10
2022-10-13T08:01:02.581Z,6.82
2022-10-13T08:03:34.453Z,5.80
2022-10-13T08:06:04.961Z,8.18
2022-10-13T08:08:33.008Z,6.22
2022-10-13T08:11:08.248Z,7.40
2022-10-13T08:13:36.077Z,6.20
2022-10-13T08:16:06.223Z,7.57
2022-10-13T08:18:35.404Z,5.22
2022-10-13T08:23:55.872Z,6.53
2022-10-13T08:26:27.540Z,7.05
2022-10-13T08:29:16.867Z,7.90
2022-10-13T08:31:44.447Z,5.32
2022-10-13T08:34:14.427Z,6.75
2022-10-13T08:36:44.274Z,5.97
2022-10-13T08:39:14.239Z,4.78
2022-10-13T08:41:48.704Z,5.55
2022-10-13T08:47:26.016Z,4.30
2022-10-13T08:49:59.778Z,5.63
2022-10-13T08:52:29.706Z,5.57
2022-10-13T08:54:59.877Z,3.88
2022-10-13T08:57:28.384Z,5.68
2022-10-13T08:59:55.777Z,6.47
2022-10-13T09:02:30.738Z,5.05
2022-10-13T09:05:04.294Z,5.70
2022-10-13T09:07:35.446Z,7.38
2022-10-13T09:10:02.867Z,5.25
2022-10-13T09:12:35.053Z,4.65
2022-10-13T09:15:10.007Z,5.05
2022-10-13T09:17:38.391Z,4.45
2022-10-13T09:20:09.868Z,4.65
2022-10-13T09:22:38.386Z,4.63
2022-10-13T09:25:14.123Z,3.95
2022-10-13T09:27:49.355Z,3.53
2022-10-13T09:30:36.806Z,6.95
2022-10-13T09:33:12.882Z,4.68
2022-10-13T09:35:41.786Z,3.95
2022-10-13T09:43:29.240Z,3.33
2022-10-13T09:45:57.182Z,4.18
2022-10-13T09:48:33.850Z,3.47
2022-10-13T09:51:01.574Z,4.05
2022-10-13T09:53:39.278Z,5.85
2022-10-13T09:56:09.531Z,5.38
2022-10-13T10:01:21.876Z,4.20
2022-10-13T10:03:52.564Z,3.35
2022-10-13T10:06:21.744Z,2.97
2022-10-13T10:09:03.132Z,3.28
2022-10-13T10:11:42.382Z,4.25
2022-10-13T10:14:31.121Z,2.72
2022-10-13T10:19:43.182Z,2.92
2022-10-13T10:22:26.624Z,3.83
2022-10-13T10:25:03.960Z,2.85
2022-10-13T10:27:45.972Z,4.57
2022-10-13T10:30:19.294Z,2.90
2022-10-13T10:33:01.315Z,4.05
2022-10-13T10:35:39.137Z,2.75
2022-10-13T10:38:13.597Z,2.90
2022-10-13T10:40:59.006Z,3.60
2022-10-13T10:43:45.227Z,2.60
2022-10-13T10:46:17.133Z,2.42
2022-10-13T10:48:47.507Z,3.50
2022-10-13T10:51:17.964Z,2.90
2022-10-13T10:53:53.696Z,2.67
2022-10-13T10:56:35.542Z,2.00
2022-10-13T10:59:05.945Z,2.38
2022-10-13T11:01:41.308Z,2.80
2022-10-13T11:04:33.609Z,3.22
2022-10-13T11:07:01.035Z,2.90
2022-10-13T11:09:43.846Z,3.13
2022-10-13T11:12:20.772Z,2.40
2022-10-13T11:14:48.478Z,2.47
2022-10-13T11:17:21.638Z,2.35
2022-10-13T11:19:50.564Z,2.08
2022-10-13T11:22:24.241Z,2.45
2022-10-13T11:24:54.245Z,2.15
2022-10-13T11:27:26.014Z,2.60
2022-10-13T11:29:55.738Z,3.03
2022-10-13T11:32:47.939Z,2.60
2022-10-13T11:35:23.259Z,2.70
2022-10-13T11:38:05.720Z,3.00
2022-10-13T11:40:38.649Z,2.90
2022-10-13T11:43:18.239Z,2.20
2022-10-13T11:46:06.508Z,2.85
2022-10-13T11:48:39.664Z,2.35
2022-10-13T11:51:23.592Z,2.65
2022-10-13T11:53:56.314Z,2.40
2022-10-13T11:56:33.102Z,3.03
2022-10-13T11:59:00.518Z,2.70
2022-10-13T12:01:28.004Z,2.30
2022-10-13T12:03:57.263Z,3.25
2022-10-13T12:06:26.669Z,3.03
2022-10-13T12:08:54.185Z,2.95
2022-10-13T12:11:31.742Z,2.65
2022-10-13T12:13:59.593Z,2.25
2022-10-13T12:16:28.655Z,2.50
2022-10-13T12:19:07.246Z,2.65
2022-10-13T12:21:34.913Z,2.75
2022-10-13T12:24:12.659Z,2.90
2022-10-13T12:26:42.642Z,2.53
2022-10-13T12:29:14.281Z,3.17
2022-10-13T12:31:43.109Z,2.45
2022-10-13T12:39:20.710Z,2.67
2022-10-13T12:41:48.903Z,2.22
2022-10-13T12:44:21.744Z,2.88
2022-10-13T12:46:55.721Z,1.80
2022-10-13T12:49:25.975Z,1.98
2022-10-13T12:51:58.400Z,1.80
2022-10-13T12:54:31.842Z,3.13
2022-10-13T12:57:02.145Z,2.33
2022-10-13T12:59:32.891Z,2.17
2022-10-13T13:02:05.598Z,2.63
2022-10-13T13:04:39.434Z,2.50
2022-10-13T13:07:09.608Z,3.72
2022-10-13T13:09:39.253Z,2.90
2022-10-13T13:12:09.423Z,2.22
2022-10-13T13:14:44.293Z,2.80
2022-10-13T13:17:56.559Z,2.20
2022-10-13T13:20:24.265Z,2.13
2022-10-13T13:22:51.685Z,2.55
2022-10-13T13:25:19.156Z,2.15
2022-10-13T13:27:46.609Z,3.40
2022-10-13T13:30:14.784Z,2.72
2022-10-13T13:32:42.272Z,2.92
2022-10-13T13:35:12.823Z,2.38
2022-10-13T13:37:49.984Z,2.08
2022-10-13T13:40:21.472Z,2.17
2022-10-13T13:42:52.069Z,2.53
2022-10-13T13:45:21.742Z,2.05
2022-10-13T13:47:49.526Z,2.08
2022-10-13T13:50:30.711Z,1.67
2022-10-13T13:53:01.695Z,2.38
2022-10-13T13:55:35.785Z,2.20
2022-10-13T13:58:04.934Z,1.92
2022-10-13T14:00:34.381Z,2.22
2022-10-13T14:03:01.835Z,2.88
2022-10-13T14:05:32.327Z,2.75
2022-10-13T14:08:00.502Z,2.40
2022-10-13T14:10:31.293Z,2.15
2022-10-13T14:13:07.094Z,2.50
2022-10-13T14:15:38.406Z,2.05
2022-10-13T14:18:05.833Z,2.58
2022-10-13T14:20:33.338Z,2.35
2022-10-13T14:23:03.320Z,2.75
2022-10-13T14:25:31.009Z,2.25
2022-10-13T14:27:58.422Z,1.73
2022-10-13T14:30:25.806Z,3.45
2022-10-13T14:32:53.191Z,2.72
2022-10-13T14:35:20.625Z,2.92
2022-10-13T14:37:48.044Z,2.28
2022-10-13T14:40:17.008Z,2.42
2022-10-13T14:42:45.580Z,2.58
2022-10-13T14:45:16.042Z,2.00
2022-10-13T14:47:43.504Z,2.35
2022-10-13T14:50:20.408Z,2.95
2022-10-13T14:52:50.453Z,3.08
2022-10-13T14:55:17.976Z,2.30
2022-10-13T14:57:46.359Z,2.55
2022-10-13T15:00:15.207Z,2.78
2022-10-13T15:05:10.304Z,2.28
2022-10-13T15:07:41.190Z,3.17
2022-10-13T15:10:12.389Z,3.15
2022-10-13T15:12:39.753Z,2.13
2022-10-13T15:15:07.405Z,1.73
2022-10-13T15:17:40.057Z,1.80
2022-10-13T15:20:10.267Z,2.20
2022-10-13T15:22:37.948Z,2.88
2022-10-13T15:25:10.018Z,3.08
2022-10-13T15:27:41.846Z,2.78
2022-10-13T15:30:10.138Z,3.25
2022-10-13T15:32:39.599Z,2.97
2022-10-13T15:35:07.175Z,1.92
2022-10-13T15:37:34.523Z,2.53
2022-10-13T15:40:01.945Z,1.83
2022-10-13T15:42:29.374Z,3.63
2022-10-13T15:45:09.372Z,2.10
2022-10-13T15:47:38.360Z,2.25
2022-10-13T15:50:06.209Z,2.08
2022-10-13T15:52:37.926Z,3.97
2022-10-13T15:55:05.602Z,1.70
2022-10-13T15:57:32.999Z,2.13
2022-10-13T16:00:00.503Z,1.45
2022-10-13T16:02:28.935Z,2.80
2022-10-13T16:04:57.308Z,3.10
2022-10-13T16:07:26.959Z,1.95
2022-10-13T16:09:54.414Z,1.65
2022-10-13T16:12:29.711Z,2.30
2022-10-13T16:14:59.362Z,3.30
2022-10-13T16:17:26.779Z,2.90
2022-10-13T16:19:56.386Z,2.30
2022-10-13T16:22:26.092Z,3.25
2022-10-13T16:24:53.674Z,1.95
2022-10-13T16:27:23.504Z,2.63
2022-10-13T16:29:51.211Z,1.85
2022-10-13T16:32:21.207Z,3.47
2022-10-13T16:34:50.114Z,3.72
2022-10-13T16:37:20.354Z,2.28
2022-10-13T16:39:51.982Z,2.90
2022-10-13T16:42:20.175Z,3.22
2022-10-13T16:44:47.605Z,4.47
2022-10-13T16:47:25.207Z,3.30
2022-10-13T16:50:08.728Z,4.68
2022-10-13T16:52:39.177Z,4.82
2022-10-13T16:55:06.776Z,5.03
2022-10-13T16:57:50.920Z,6.20
2022-10-13T17:00:22.074Z,4.82
2022-10-13T17:02:55.233Z,4.10
2022-10-13T17:05:23.039Z,6.00
2022-10-13T17:07:53.354Z,4.80
2022-10-13T17:10:21.108Z,4.43
2022-10-13T17:12:50.993Z,3.33
2022-10-13T17:15:20.971Z,4.35
2022-10-13T17:17:54.457Z,4.57
2022-10-13T17:20:23.711Z,4.13
2022-10-13T17:22:51.620Z,3.30
2022-10-13T17:25:26.240Z,3.72
2022-10-13T17:27:53.933Z,3.40
2022-10-13T17:30:23.358Z,4.30
2022-10-13T17:33:02.030Z,4.32
2022-10-13T17:35:35.941Z,2.97
2022-10-13T17:38:04.745Z,3.25
2022-10-13T17:40:39.961Z,2.53
2022-10-13T17:43:10.134Z,4.20
2022-10-13T17:45:38.211Z,5.30
2022-10-13T17:48:07.613Z,2.83
2022-10-13T17:50:38.395Z,2.58
2022-10-13T17:53:07.475Z,3.42
2022-10-13T17:55:37.576Z,3.53
2022-10-13T17:58:06.573Z,4.57
2022-10-13T18:03:31.600Z,2.50
2022-10-13T18:06:02.162Z,2.97
2022-10-13T18:08:29.964Z,3.08
2022-10-13T18:11:07.790Z,3.13
2022-10-13T18:13:36.020Z,2.45
2022-10-13T18:16:06.402Z,3.65
2022-10-13T18:18:45.143Z,3.00
2022-10-13T18:21:22.205Z,3.20
2022-10-13T18:23:49.812Z,3.58
2022-10-13T18:26:19.349Z,1.92
2022-10-13T18:28:53.692Z,2.67
2022-10-13T18:31:28.441Z,4.25
2022-10-13T18:34:05.419Z,2.22
2022-10-13T18:36:36.892Z,3.42
2022-10-13T18:39:11.211Z,3.05
2022-10-13T18:41:39.869Z,2.65
2022-10-13T18:44:15.819Z,2.42
2022-10-13T18:46:47.409Z,1.95
2022-10-13T18:49:18.796Z,2.65
2022-10-13T18:51:54.050Z,2.72
2022-10-13T18:54:22.257Z,2.45
2022-10-13T18:56:52.799Z,2.97
2022-10-13T18:59:20.762Z,2.95
2022-10-13T19:01:48.651Z,2.90
2022-10-13T19:04:17.497Z,2.97
2022-10-13T19:06:49.542Z,1.83
2022-10-13T19:09:26.919Z,5.43
2022-10-13T19:11:59.249Z,1.55
2022-10-13T19:14:47.257Z,3.53
2022-10-13T19:17:17.856Z,3.40
2022-10-13T19:19:46.996Z,2.53
2022-10-13T19:22:18.243Z,2.63
2022-10-13T19:24:46.910Z,3.55
2022-10-13T19:27:14.821Z,2.42
2022-10-13T19:29:46.385Z,2.80
2022-10-13T19:32:14.259Z,2.30
2022-10-13T19:34:42.154Z,2.42
2022-10-13T19:37:10.294Z,2.67
2022-10-13T19:39:39.728Z,2.80
2022-10-13T19:42:07.634Z,3.55
2022-10-13T19:44:38.379Z,2.03
2022-10-13T19:47:06.154Z,2.58
2022-10-13T19:49:39.346Z,3.55
2022-10-13T19:52:07.296Z,1.40
2022-10-13T19:54:37.717Z,3.72
2022-10-13T19:57:16.848Z,2.65
2022-10-13T19:59:47.689Z,2.33
2022-10-13T20:02:17.394Z,2.00
2022-10-13T20:04:54.398Z,2.95
2022-10-13T20:07:22.510Z,1.65
2022-10-13T20:09:55.048Z,3.08
2022-10-13T20:12:22.515Z,4.28
2022-10-13T20:14:55.035Z,2.38
2022-10-13T20:17:22.954Z,2.53
2022-10-13T20:19:53.199Z,3.93
2022-10-13T20:22:36.545Z,2.40
2022-10-13T20:25:04.132Z,3.05
2022-10-13T20:27:31.873Z,3.67
2022-10-13T20:29:59.346Z,4.00
2022-10-13T20:32:34.168Z,3.50
2022-10-13T20:35:01.589Z,3.20
2022-10-13T20:37:36.388Z,3.58
2022-10-13T20:40:03.898Z,2.80
2022-10-13T20:42:31.453Z,4.05
2022-10-13T20:45:03.019Z,3.70
2022-10-13T20:47:30.412Z,4.70
2022-10-13T20:49:57.794Z,2.40
2022-10-13T20:52:31.115Z,4.35
2022-10-13T20:54:58.606Z,4.65
2022-10-13T20:57:27.867Z,3.97
2022-10-13T20:59:56.461Z,4.65
2022-10-13T21:02:24.969Z,3.92
2022-10-13T21:04:55.476Z,5.07
2022-10-13T21:07:23.198Z,4.60
2022-10-13T21:09:54.080Z,4.43
2022-10-13T21:12:24.328Z,4.05
2022-10-13T21:14:55.458Z,5.60
2022-10-13T21:17:27.045Z,3.47
2022-10-13T21:19:55.648Z,3.15
2022-10-13T21:22:23.013Z,4.82
2022-10-13T21:24:52.786Z,4.22
2022-10-13T21:27:23.788Z,5.10
2022-10-13T21:29:53.167Z,3.38
2022-10-13T21:32:28.080Z,4.18
2022-10-13T21:35:03.985Z,3.33
2022-10-13T21:37:34.155Z,4.18
2022-10-13T21:40:06.366Z,4.63
2022-10-13T21:42:37.718Z,4.38
2022-10-13T21:45:05.592Z,4.57
2022-10-13T21:47:33.800Z,3.97
2022-10-13T21:50:01.215Z,4.77
2022-10-13T21:52:29.280Z,5.15
2022-10-13T21:54:56.748Z,3.92
2022-10-13T21:57:24.426Z,5.22
2022-10-13T21:59:51.834Z,4.78
2022-10-13T22:02:19.245Z,5.07
2022-10-13T22:04:48.832Z,2.60
2022-10-13T22:07:22.360Z,3.90
2022-10-13T22:09:50.065Z,3.47
2022-10-13T22:12:17.417Z,3.38
2022-10-13T22:14:48.945Z,3.95
2022-10-13T22:17:22.037Z,3.78
2022-10-13T22:19:59.849Z,3.75
2022-10-13T22:22:30.830Z,3.10
2022-10-13T22:24:58.466Z,2.50
2022-10-13T22:27:33.169Z,3.05
2022-10-13T22:30:00.750Z,3.00
2022-10-13T22:32:31.170Z,3.08
2022-10-13T22:34:58.634Z,2.53
2022-10-13T22:37:26.129Z,3.88
2022-10-13T22:39:53.547Z,3.60
2022-10-13T22:42:21.504Z,4.47
2022-10-13T22:44:48.962Z,4.55
2022-10-13T22:47:16.389Z,3.72
2022-10-13T22:49:45.922Z,4.38
2022-10-13T22:52:20.539Z,3.45
2022-10-13T22:54:50.601Z,5.28
2022-10-13T22:57:21.551Z,5.13
2022-10-13T22:59:51.578Z,5.55
2022-10-13T23:02:21.710Z,5.13
2022-10-13T23:04:49.603Z,3.95
2022-10-13T23:07:19.824Z,5.03
2022-10-13T23:09:49.380Z,5.32
2022-10-13T23:12:16.787Z,3.90
2022-10-13T23:14:44.231Z,4.50
2022-10-13T23:17:15.264Z,4.55
2022-10-13T23:19:48.594Z,5.15
2022-10-13T23:22:20.298Z,5.20
2022-10-13T23:24:50.360Z,4.80
2022-10-13T23:27:17.763Z,3.88
2022-10-13T23:29:50.017Z,3.65
2022-10-13T23:32:17.421Z,4.13
2022-10-13T23:34:47.492Z,6.13
2022-10-13T23:37:14.932Z,5.38
2022-10-13T23:39:42.619Z,6.18
2022-10-13T23:42:12.635Z,6.15
2022-10-13T23:44:40.053Z,5.13
2022-10-13T23:47:09.901Z,4.00
2022-10-13T23:49:37.301Z,5.03
2022-10-13T23:52:10.798Z,5.53
2022-10-13T23:54:39.625Z,5.10
2022-10-13T23:57:07.025Z,4.53
2022-10-13T23:59:38.044Z,5.82
